createdAt,value
2023-03-06T00:00:50.919Z,2.70
2023-03-06T00:03:22.349Z,3.50
2023-03-06T00:05:55.564Z,3.10
2023-03-06T00:10:56.199Z,3.00
2023-03-06T00:13:30.067Z,4.50
2023-03-06T00:16:02.686Z,3.90
2023-03-06T00:18:33.775Z,3.50
2023-03-06T00:21:07.445Z,5.60
2023-03-06T00:23:38.253Z,4.30
2023-03-06T00:26:11.240Z,2.70
2023-03-06T00:28:42.217Z,3.40
2023-03-06T00:31:13.416Z,4.80
2023-03-06T00:33:44.338Z,5.00
2023-03-06T00:36:15.202Z,5.90
2023-03-06T00:38:45.929Z,3.90
2023-03-06T00:41:16.657Z,4.40
2023-03-06T00:43:47.500Z,3.90
2023-03-06T00:46:18.285Z,4.30
2023-03-06T00:48:49.061Z,4.50
2023-03-06T00:51:21.702Z,5.10
2023-03-06T00:53:52.446Z,3.90
2023-03-06T00:56:23.132Z,4.80
2023-03-06T00:58:53.773Z,4.50
2023-03-06T01:01:24.477Z,5.00
2023-03-06T01:03:55.489Z,3.90
2023-03-06T01:06:26.441Z,2.70
2023-03-06T01:08:57.302Z,4.70
2023-03-06T01:11:29.361Z,2.80
2023-03-06T01:14:00.733Z,6.50
2023-03-06T01:16:31.500Z,5.90
2023-03-06T01:19:02.343Z,5.00
2023-03-06T01:21:33.615Z,4.30
2023-03-06T01:24:04.497Z,4.30
2023-03-06T01:26:35.708Z,4.50
2023-03-06T01:29:07.346Z,4.10
2023-03-06T01:31:38.641Z,3.80
2023-03-06T01:34:09.680Z,3.40
2023-03-06T01:36:40.403Z,4.00
2023-03-06T01:39:11.402Z,4.60
2023-03-06T01:41:42.317Z,5.20
2023-03-06T01:44:14.544Z,4.60
2023-03-06T01:46:46.612Z,5.00
2023-03-06T01:49:22.363Z,6.70
2023-03-06T01:51:56.980Z,4.00
2023-03-06T01:54:30.477Z,6.90
2023-03-06T01:57:04.906Z,3.70
2023-03-06T01:59:37.461Z,5.10
2023-03-06T02:02:10.180Z,3.80
2023-03-06T02:04:42.452Z,6.00
2023-03-06T02:07:13.254Z,4.30
2023-03-06T02:09:43.984Z,5.30
2023-03-06T02:12:18.842Z,4.50
2023-03-06T02:14:50.415Z,4.50
2023-03-06T02:17:23.569Z,4.60
2023-03-06T02:22:35.703Z,8.30
2023-03-06T02:25:13.229Z,5.40
2023-03-06T02:27:44.558Z,5.90
2023-03-06T02:30:18.044Z,4.70
2023-03-06T02:32:48.739Z,4.50
2023-03-06T02:35:22.462Z,5.00
2023-03-06T02:37:54.001Z,6.30
2023-03-06T02:40:25.780Z,5.20
2023-03-06T02:42:58.772Z,5.00
2023-03-06T02:45:34.926Z,5.40
2023-03-06T02:48:06.952Z,5.20
2023-03-06T02:50:37.688Z,5.50
2023-03-06T02:53:09.322Z,5.80
2023-03-06T02:55:40.468Z,7.30
2023-03-06T02:58:11.598Z,4.80
2023-03-06T03:00:42.503Z,5.90
2023-03-06T03:03:13.768Z,6.70
2023-03-06T03:05:44.700Z,6.20
2023-03-06T03:08:19.687Z,5.70
2023-03-06T03:10:52.282Z,5.80
2023-03-06T03:13:23.533Z,5.50
2023-03-06T03:16:02.819Z,5.30
2023-03-06T03:18:33.802Z,5.50
2023-03-06T03:21:08.015Z,6.20
2023-03-06T03:23:38.812Z,6.00
2023-03-06T03:26:15.544Z,4.50
2023-03-06T03:28:49.108Z,5.30
2023-03-06T03:31:21.642Z,4.70
2023-03-06T03:33:53.758Z,5.50
2023-03-06T03:36:26.068Z,5.60
2023-03-06T03:38:58.188Z,4.50
2023-03-06T03:41:29.357Z,6.50
2023-03-06T03:44:00.356Z,5.80
2023-03-06T03:46:31.070Z,6.10
2023-03-06T03:49:03.660Z,7.60
2023-03-06T03:51:35.233Z,7.80
2023-03-06T03:54:06.325Z,6.30
2023-03-06T03:56:42.028Z,6.20
2023-03-06T03:59:21.062Z,5.50
2023-03-06T04:02:05.775Z,4.70
2023-03-06T04:04:40.206Z,4.00
2023-03-06T04:07:11.376Z,7.20
2023-03-06T04:09:42.662Z,6.40
2023-03-06T04:12:13.676Z,4.50
2023-03-06T04:14:45.682Z,11.20
2023-03-06T04:17:16.641Z,7.30
2023-03-06T04:19:48.059Z,7.60
2023-03-06T04:22:20.075Z,6.90
2023-03-06T04:24:51.167Z,5.50
2023-03-06T04:27:22.933Z,6.70
2023-03-06T04:29:56.338Z,7.50
2023-03-06T04:32:27.462Z,7.60
2023-03-06T04:34:58.317Z,6.60
2023-03-06T04:37:31.090Z,6.50
2023-03-06T04:42:32.225Z,6.10
2023-03-06T04:45:02.938Z,6.50
2023-03-06T04:47:33.667Z,6.10
2023-03-06T04:50:04.516Z,9.50
2023-03-06T04:52:35.456Z,5.60
2023-03-06T04:55:08.832Z,6.30
2023-03-06T04:57:40.399Z,5.50
2023-03-06T05:00:16.717Z,6.60
2023-03-06T05:02:48.094Z,6.20
2023-03-06T05:05:20.039Z,6.10
2023-03-06T05:07:50.934Z,6.10
2023-03-06T05:10:22.356Z,7.40
2023-03-06T05:12:52.978Z,4.90
2023-03-06T05:15:23.983Z,6.30
2023-03-06T05:17:56.577Z,4.80
2023-03-06T05:20:28.650Z,5.70
2023-03-06T05:22:59.454Z,4.70
2023-03-06T05:25:30.108Z,7.90
2023-03-06T05:28:00.816Z,9.30
2023-03-06T05:30:31.581Z,7.40
2023-03-06T05:33:02.812Z,6.70
2023-03-06T05:35:33.527Z,7.80
2023-03-06T05:38:04.246Z,8.20
2023-03-06T05:40:35.164Z,7.70
2023-03-06T05:43:06.988Z,7.60
2023-03-06T05:45:38.550Z,7.30
2023-03-06T05:48:10.348Z,9.50
2023-03-06T05:50:41.333Z,8.80
2023-03-06T05:53:12.229Z,8.30
2023-03-06T05:55:43.121Z,7.30
2023-03-06T05:58:13.860Z,10.70
2023-03-06T06:00:44.716Z,8.60
2023-03-06T06:03:15.482Z,7.70
2023-03-06T06:05:46.257Z,7.90
2023-03-06T06:08:17.107Z,10.40
2023-03-06T06:10:47.961Z,9.00
2023-03-06T06:13:18.708Z,9.30
2023-03-06T06:15:49.437Z,12.90
2023-03-06T06:18:20.678Z,9.30
2023-03-06T06:20:51.508Z,9.50
2023-03-06T06:23:22.420Z,11.20
2023-03-06T06:25:53.228Z,8.70
2023-03-06T06:28:23.903Z,8.50
2023-03-06T06:30:54.927Z,10.50
2023-03-06T06:33:26.645Z,9.50
2023-03-06T06:35:57.516Z,8.80
2023-03-06T06:38:28.226Z,10.00
2023-03-06T06:41:32.994Z,9.10
2023-03-06T06:43:49.657Z,5.80
2023-03-06T06:47:09.239Z,8.40
2023-03-06T06:49:12.045Z,6.20
2023-03-06T06:51:43.325Z,7.10
2023-03-06T06:54:14.265Z,7.30
2023-03-06T06:56:44.902Z,6.50
2023-03-06T06:59:17.401Z,6.20
2023-03-06T07:01:48.583Z,10.00
2023-03-06T07:04:20.163Z,7.50
2023-03-06T07:06:51.164Z,6.70
2023-03-06T07:09:22.442Z,8.50
2023-03-06T07:11:53.454Z,9.90
2023-03-06T07:14:24.321Z,8.30
2023-03-06T07:16:55.143Z,8.00
2023-03-06T07:19:26.355Z,7.20
2023-03-06T07:21:57.131Z,9.40
2023-03-06T07:24:28.128Z,7.00
2023-03-06T07:26:58.867Z,9.80
2023-03-06T07:29:29.664Z,8.20
2023-03-06T07:32:00.508Z,7.20
2023-03-06T07:34:31.526Z,10.30
2023-03-06T07:37:02.571Z,7.30
2023-03-06T07:39:33.334Z,9.40
2023-03-06T07:42:04.767Z,11.00
2023-03-06T07:44:39.118Z,11.80
2023-03-06T07:47:09.957Z,9.30
2023-03-06T07:49:40.829Z,9.40
2023-03-06T07:52:12.816Z,6.70
2023-03-06T07:54:43.472Z,7.50
2023-03-06T07:57:14.123Z,8.10
2023-03-06T07:59:44.792Z,8.70
2023-03-06T08:02:15.565Z,8.90
2023-03-06T08:04:46.296Z,7.40
2023-03-06T08:07:17.076Z,8.20
2023-03-06T08:09:47.765Z,9.10
2023-03-06T08:12:18.705Z,10.50
2023-03-06T08:14:49.303Z,11.20
2023-03-06T08:17:20.096Z,9.00
2023-03-06T08:19:50.774Z,9.00
2023-03-06T08:22:21.465Z,9.20
2023-03-06T08:24:55.037Z,9.10
2023-03-06T08:27:25.795Z,9.30
2023-03-06T08:29:56.426Z,6.80
2023-03-06T08:32:27.592Z,10.30
2023-03-06T08:34:58.376Z,11.00
2023-03-06T08:37:29.031Z,9.50
2023-03-06T08:39:59.906Z,10.90
2023-03-06T08:42:30.916Z,9.50
2023-03-06T08:45:01.614Z,9.00
2023-03-06T08:47:32.396Z,8.90
2023-03-06T08:50:03.259Z,7.90
2023-03-06T08:52:33.889Z,8.80
2023-03-06T08:55:05.234Z,8.60
2023-03-06T08:57:37.011Z,15.20
2023-03-06T09:00:10.694Z,9.70
2023-03-06T09:02:41.389Z,8.70
2023-03-06T09:05:13.198Z,7.70
2023-03-06T09:07:43.902Z,9.40
2023-03-06T09:10:18.410Z,9.80
2023-03-06T09:12:52.493Z,12.40
2023-03-06T09:15:26.096Z,10.30
2023-03-06T09:17:57.011Z,9.40
2023-03-06T09:20:27.869Z,11.80
2023-03-06T09:22:58.612Z,8.60
2023-03-06T09:25:29.216Z,10.80
2023-03-06T09:28:10.961Z,8.50
2023-03-06T09:30:44.071Z,11.40
2023-03-06T09:33:15.019Z,9.30
2023-03-06T09:35:50.901Z,9.60
2023-03-06T09:38:22.415Z,10.50
2023-03-06T09:41:11.736Z,11.80
2023-03-06T09:43:45.264Z,10.90
2023-03-06T09:46:26.144Z,11.20
2023-03-06T09:49:15.153Z,15.40
2023-03-06T09:52:00.361Z,11.40
2023-03-06T09:54:41.601Z,6.60
2023-03-06T09:57:19.875Z,10.90
2023-03-06T09:59:52.188Z,12.60
2023-03-06T10:02:32.606Z,13.20
2023-03-06T10:05:09.311Z,10.10
2023-03-06T10:07:47.982Z,11.10
2023-03-06T10:10:23.801Z,12.60
2023-03-06T10:13:04.299Z,10.10
2023-03-06T10:15:39.505Z,12.80
2023-03-06T10:18:13.113Z,10.30
2023-03-06T10:20:50.927Z,14.80
2023-03-06T10:23:37.343Z,12.00
2023-03-06T10:26:14.913Z,12.40
2023-03-06T10:28:58.083Z,13.00
2023-03-06T10:31:29.657Z,10.20
2023-03-06T10:34:12.728Z,15.10
2023-03-06T10:36:43.378Z,5.30
2023-03-06T10:39:19.788Z,13.10
2023-03-06T10:41:51.494Z,10.80
2023-03-06T10:44:26.684Z,11.50
2023-03-06T10:46:57.983Z,14.00
2023-03-06T10:49:32.886Z,12.40
2023-03-06T10:52:06.908Z,13.30
2023-03-06T10:54:40.474Z,15.10
2023-03-06T10:57:29.493Z,10.50
2023-03-06T11:00:04.716Z,14.60
2023-03-06T11:02:38.534Z,14.50
2023-03-06T11:05:21.472Z,13.30
2023-03-06T11:07:59.278Z,12.60
2023-03-06T11:10:31.815Z,15.00
2023-03-06T11:13:08.750Z,13.50
2023-03-06T11:15:39.477Z,12.30
2023-03-06T11:18:31.258Z,12.40
2023-03-06T11:21:02.815Z,12.80
2023-03-06T11:23:42.416Z,12.50
2023-03-06T11:26:38.787Z,14.00
2023-03-06T11:29:43.934Z,12.10
2023-03-06T11:32:21.892Z,12.00
2023-03-06T11:34:58.896Z,12.30
2023-03-06T11:37:42.762Z,14.70
2023-03-06T11:40:21.127Z,12.30
2023-03-06T11:43:00.881Z,18.20
2023-03-06T11:45:37.317Z,14.00
2023-03-06T11:48:22.822Z,15.40
2023-03-06T11:50:57.266Z,15.40
2023-03-06T11:53:33.152Z,16.10
2023-03-06T11:56:15.755Z,13.70
2023-03-06T11:59:16.990Z,14.20
2023-03-06T12:02:00.604Z,11.10
2023-03-06T12:04:47.119Z,13.10
2023-03-06T12:07:27.889Z,16.70
2023-03-06T12:10:18.384Z,12.50
2023-03-06T12:13:10.837Z,13.70
2023-03-06T12:15:59.405Z,12.70
2023-03-06T12:18:44.204Z,14.50
2023-03-06T12:21:28.553Z,15.70
2023-03-06T12:24:18.201Z,12.10
2023-03-06T12:27:14.470Z,15.60
2023-03-06T12:29:59.443Z,12.90
2023-03-06T12:32:45.007Z,13.40
2023-03-06T12:35:44.804Z,14.20
2023-03-06T12:38:39.137Z,14.20
2023-03-06T12:41:23.214Z,15.00
2023-03-06T12:44:07.558Z,15.50
2023-03-06T12:46:44.429Z,16.10
2023-03-06T12:49:31.968Z,16.00
2023-03-06T12:52:06.030Z,12.30
2023-03-06T12:54:40.931Z,8.80
2023-03-06T12:57:15.420Z,12.70
2023-03-06T12:59:48.541Z,14.60
2023-03-06T13:02:45.800Z,14.30
2023-03-06T13:05:35.088Z,15.00
2023-03-06T13:08:35.535Z,12.30
2023-03-06T13:11:31.679Z,7.40
2023-03-06T13:14:19.734Z,10.00
2023-03-06T13:16:50.552Z,11.30
2023-03-06T13:19:24.287Z,11.00
2023-03-06T13:22:24.872Z,6.60
2023-03-06T13:25:49.003Z,8.80
2023-03-06T13:28:44.806Z,9.60
2023-03-06T13:31:27.768Z,5.10
2023-03-06T13:34:01.138Z,8.30
2023-03-06T13:36:33.961Z,8.80
2023-03-06T13:39:09.576Z,10.90
2023-03-06T13:41:58.206Z,10.90
2023-03-06T13:44:52.983Z,8.70
2023-03-06T13:50:45.381Z,8.50
2023-03-06T13:53:44.571Z,7.70
2023-03-06T13:56:35.976Z,12.40
2023-03-06T13:59:34.101Z,9.00
2023-03-06T14:02:24.752Z,13.70
2023-03-06T14:05:00.898Z,11.90
2023-03-06T14:07:33.467Z,7.20
2023-03-06T14:10:20.508Z,10.60
2023-03-06T14:13:15.058Z,9.20
2023-03-06T14:15:48.035Z,13.90
2023-03-06T14:20:54.984Z,10.70
2023-03-06T14:23:35.576Z,11.90
2023-03-06T14:26:15.549Z,10.90
2023-03-06T14:28:55.230Z,12.00
2023-03-06T14:31:28.854Z,10.00
2023-03-06T14:34:02.754Z,10.50
2023-03-06T14:36:37.630Z,9.80
2023-03-06T14:39:13.701Z,13.10
2023-03-06T14:41:44.844Z,15.20
2023-03-06T14:44:21.719Z,10.60
2023-03-06T14:46:55.043Z,13.20
2023-03-06T14:49:27.870Z,11.20
2023-03-06T14:52:00.525Z,12.80
2023-03-06T14:54:33.632Z,9.50
2023-03-06T14:57:06.848Z,10.10
2023-03-06T14:59:44.878Z,11.30
2023-03-06T15:02:22.396Z,13.00
2023-03-06T15:04:55.799Z,9.40
2023-03-06T15:07:30.408Z,9.60
2023-03-06T15:10:02.405Z,6.70
2023-03-06T15:12:38.712Z,5.40
2023-03-06T15:18:35.446Z,9.40
2023-03-06T15:21:19.336Z,10.00
2023-03-06T15:23:51.956Z,10.80
2023-03-06T15:26:29.118Z,9.20
2023-03-06T15:29:09.260Z,8.60
2023-03-06T15:31:42.045Z,8.50
2023-03-06T15:34:29.372Z,8.50
2023-03-06T15:37:00.467Z,4.70
2023-03-06T15:39:39.784Z,8.70
2023-03-06T15:42:22.368Z,6.50
2023-03-06T15:44:55.090Z,8.30
2023-03-06T15:47:25.748Z,10.10
2023-03-06T15:49:56.962Z,9.00
2023-03-06T15:52:27.754Z,6.40
2023-03-06T15:54:58.425Z,10.60
2023-03-06T15:57:30.296Z,8.90
2023-03-06T16:00:03.959Z,11.20
2023-03-06T16:02:55.580Z,9.70
2023-03-06T16:05:28.438Z,9.90
2023-03-06T16:07:59.634Z,10.20
2023-03-06T16:10:34.056Z,8.90
2023-03-06T16:13:09.723Z,8.00
2023-03-06T16:15:42.540Z,7.90
2023-03-06T16:18:14.952Z,8.10
2023-03-06T16:20:46.014Z,5.20
2023-03-06T16:23:16.748Z,5.90
2023-03-06T16:25:50.792Z,6.30
2023-03-06T16:28:21.478Z,5.40
2023-03-06T16:30:52.253Z,6.60
2023-03-06T16:33:23.137Z,3.10
2023-03-06T16:35:54.326Z,8.30
2023-03-06T16:38:25.186Z,4.80
2023-03-06T16:40:55.892Z,8.10
2023-03-06T16:43:26.609Z,7.50
2023-03-06T16:45:58.286Z,8.10
2023-03-06T16:48:29.161Z,6.40
2023-03-06T16:50:59.878Z,5.90
2023-03-06T16:53:30.593Z,5.90
2023-03-06T16:56:01.423Z,6.60
2023-03-06T16:58:32.525Z,5.80
2023-03-06T17:01:03.965Z,8.40
2023-03-06T17:03:35.006Z,7.50
2023-03-06T17:06:13.937Z,8.50
2023-03-06T17:08:45.428Z,8.10
2023-03-06T17:11:17.142Z,7.70
2023-03-06T17:13:47.886Z,7.50
2023-03-06T17:16:19.144Z,7.10
2023-03-06T17:18:50.299Z,10.60
2023-03-06T17:21:21.154Z,15.90
2023-03-06T17:23:51.874Z,14.90
2023-03-06T17:26:22.802Z,14.70
2023-03-06T17:28:54.389Z,19.40
2023-03-06T17:31:26.814Z,17.30
2023-03-06T17:34:00.712Z,18.90
2023-03-06T17:36:32.736Z,13.70
2023-03-06T17:39:07.393Z,18.00
2023-03-06T17:41:38.106Z,16.50
2023-03-06T17:44:10.984Z,16.60
2023-03-06T17:46:41.708Z,16.90
2023-03-06T17:49:12.764Z,15.50
2023-03-06T17:51:43.476Z,14.60
2023-03-06T17:54:14.206Z,16.90
2023-03-06T17:56:45.411Z,14.30
2023-03-06T17:59:16.254Z,12.30
2023-03-06T18:01:47.153Z,11.10
2023-03-06T18:04:18.081Z,12.00
2023-03-06T18:06:49.107Z,10.90
2023-03-06T18:09:19.912Z,10.20
2023-03-06T18:11:50.683Z,12.00
2023-03-06T18:14:21.349Z,12.10
2023-03-06T18:16:52.148Z,14.70
2023-03-06T18:19:22.805Z,13.40
2023-03-06T18:21:53.589Z,12.80
2023-03-06T18:24:25.137Z,11.40
2023-03-06T18:26:56.157Z,8.70
2023-03-06T18:29:26.989Z,10.40
2023-03-06T18:32:02.123Z,7.90
2023-03-06T18:34:33.540Z,10.00
2023-03-06T18:37:04.202Z,10.10
2023-03-06T18:39:39.403Z,11.40
2023-03-06T18:42:11.353Z,9.20
2023-03-06T18:44:44.032Z,9.40
2023-03-06T18:47:14.906Z,11.70
2023-03-06T18:49:46.388Z,10.60
2023-03-06T18:52:17.225Z,8.60
2023-03-06T18:54:50.525Z,9.80
2023-03-06T18:57:21.335Z,7.50
2023-03-06T18:59:52.259Z,9.70
2023-03-06T19:02:23.130Z,10.50
2023-03-06T19:04:54.652Z,10.40
2023-03-06T19:07:25.709Z,11.20
2023-03-06T19:09:56.323Z,11.80
2023-03-06T19:12:27.046Z,14.00
2023-03-06T19:14:58.990Z,14.60
2023-03-06T19:17:31.429Z,10.10
2023-03-06T19:20:02.148Z,11.80
2023-03-06T19:22:35.082Z,13.80
2023-03-06T19:25:07.779Z,10.70
2023-03-06T19:27:39.510Z,11.00
2023-03-06T19:30:12.945Z,12.30
2023-03-06T19:32:46.987Z,10.20
2023-03-06T19:35:18.695Z,10.70
2023-03-06T19:37:49.492Z,10.90
2023-03-06T19:40:20.360Z,13.60
2023-03-06T19:42:51.389Z,10.80
2023-03-06T19:45:22.411Z,12.20
2023-03-06T19:47:55.542Z,11.80
2023-03-06T19:53:00.357Z,10.00
2023-03-06T19:55:31.814Z,11.70
2023-03-06T19:58:02.856Z,11.00
2023-03-06T20:00:34.637Z,10.30
2023-03-06T20:03:05.656Z,12.30
2023-03-06T20:05:36.371Z,11.50
2023-03-06T20:08:07.825Z,12.40
2023-03-06T20:10:40.353Z,12.40
2023-03-06T20:13:11.137Z,13.90
2023-03-06T20:15:41.896Z,13.20
2023-03-06T20:18:12.886Z,15.50
2023-03-06T20:20:45.324Z,12.50
2023-03-06T20:23:16.726Z,13.80
2023-03-06T20:25:47.688Z,13.60
2023-03-06T20:28:21.410Z,11.60
2023-03-06T20:30:52.242Z,13.10
2023-03-06T20:33:26.592Z,12.10
2023-03-06T20:36:00.649Z,11.30
2023-03-06T20:38:31.754Z,14.10
2023-03-06T20:41:03.113Z,13.40
2023-03-06T20:43:33.820Z,8.10
2023-03-06T20:46:07.015Z,11.20
2023-03-06T20:48:40.529Z,12.70
2023-03-06T20:51:19.022Z,11.10
2023-03-06T20:53:54.814Z,12.80
2023-03-06T20:56:27.121Z,12.10
2023-03-06T20:58:58.191Z,11.70
2023-03-06T21:01:30.729Z,11.20
2023-03-06T21:04:02.426Z,12.30
2023-03-06T21:06:34.294Z,14.60
2023-03-06T21:09:06.468Z,11.40
2023-03-06T21:11:37.953Z,11.60
2023-03-06T21:14:08.649Z,10.70
2023-03-06T21:16:39.668Z,11.20
2023-03-06T21:19:11.477Z,12.20
2023-03-06T21:21:42.322Z,14.00
2023-03-06T21:24:13.872Z,10.70
2023-03-06T21:26:45.269Z,11.90
2023-03-06T21:29:18.936Z,10.90
2023-03-06T21:32:11.080Z,11.80
2023-03-06T21:34:42.090Z,11.00
2023-03-06T21:37:12.817Z,13.40
2023-03-06T21:39:43.492Z,13.20
2023-03-06T21:42:14.706Z,12.10
2023-03-06T21:44:45.876Z,11.50
2023-03-06T21:47:17.476Z,9.60
2023-03-06T21:49:50.806Z,10.20
2023-03-06T21:52:21.963Z,12.40
2023-03-06T21:54:54.415Z,14.20
2023-03-06T21:57:25.825Z,13.70
2023-03-06T21:59:57.415Z,12.60
2023-03-06T22:02:29.286Z,11.70
2023-03-06T22:05:00.671Z,12.60
2023-03-06T22:07:37.424Z,11.10
2023-03-06T22:10:12.141Z,10.40
2023-03-06T22:12:43.237Z,9.00
2023-03-06T22:15:14.492Z,13.00
2023-03-06T22:17:45.406Z,11.10
2023-03-06T22:20:16.840Z,12.60
2023-03-06T22:22:47.748Z,14.10
2023-03-06T22:25:18.826Z,11.20
2023-03-06T22:27:49.474Z,11.70
2023-03-06T22:30:20.769Z,13.00
2023-03-06T22:32:53.065Z,11.40
2023-03-06T22:35:23.782Z,12.80
2023-03-06T22:37:54.707Z,12.20
2023-03-06T22:40:25.381Z,13.70
2023-03-06T22:42:56.188Z,14.30
2023-03-06T22:45:27.017Z,13.40
2023-03-06T22:48:10.106Z,14.00
2023-03-06T22:50:41.894Z,14.50
2023-03-06T22:53:12.555Z,10.00
2023-03-06T22:55:43.310Z,10.80
2023-03-06T22:58:14.059Z,10.80
2023-03-06T23:00:44.743Z,12.30
2023-03-06T23:03:15.636Z,12.40
2023-03-06T23:05:46.613Z,12.30
2023-03-06T23:08:17.338Z,11.10
2023-03-06T23:10:48.036Z,11.70
2023-03-06T23:13:37.648Z,14.20
2023-03-06T23:16:27.770Z,13.40
2023-03-06T23:19:17.381Z,15.30
2023-03-06T23:22:07.142Z,13.40
2023-03-06T23:24:56.541Z,11.00
2023-03-06T23:27:27.367Z,13.30
2023-03-06T23:29:59.210Z,11.40
2023-03-06T23:32:30.141Z,11.30
2023-03-06T23:35:01.240Z,14.10
2023-03-06T23:37:32.073Z,13.80
2023-03-06T23:40:03.042Z,11.70
2023-03-06T23:42:33.998Z,10.20
2023-03-06T23:45:05.257Z,13.60
2023-03-06T23:47:36.543Z,13.20
2023-03-06T23:50:08.879Z,13.40
2023-03-06T23:52:40.425Z,15.90
2023-03-06T23:55:12.130Z,13.90
2023-03-06T23:57:42.788Z,10.00
